Time;durP1;ratioP1;P1;durP2;ratioP2;P2;SDS_P1;SDS_P2;PMS_P1;PMS_P2;Temp;Humidity;BMP_temperature;BMP_pressure;BME280_temperature;BME280_humidity;BME280_pressure;Samples;Min_cycle;Max_cycle;Signal;HPM_P1;HPM_P2
2023/05/17 00:04:14;;;;;;;33.90;29.50;;;;;;;11.53;90.16;98478.98;225460;1280;22579;-72
2023/05/17 00:09:21;;;;;;;29.30;26.00;;;;;;;11.53;90.11;98472.05;225481;1282;22704;-72
2023/05/17 00:14:25;;;;;;;29.10;26.00;;;;;;;11.51;90.19;98468.42;225542;1282;22547;-72
2023/05/17 00:19:30;;;;;;;25.80;23.10;;;;;;;11.49;90.31;98478.23;225624;1278;22571;-72
2023/05/17 00:24:32;;;;;;;27.00;24.00;;;;;;;11.46;90.55;98481.10;225568;1279;22550;-72
2023/05/17 00:29:34;;;;;;;28.80;25.90;;;;;;;11.43;90.28;98467.34;225641;1279;24254;-71
2023/05/17 00:34:40;;;;;;;29.90;26.90;;;;;;;11.41;90.59;98469.60;225553;1280;22560;-71
2023/05/17 00:39:44;;;;;;;31.40;28.00;;;;;;;11.40;90.46;98470.45;225497;1282;22650;-72
2023/05/17 00:44:51;;;;;;;32.50;28.50;;;;;;;11.39;90.50;98467.02;225513;1282;22550;-72
2023/05/17 00:49:56;;;;;;;32.80;29.00;;;;;;;11.38;90.66;98467.19;225431;1281;22550;-72
2023/05/17 00:55:05;;;;;;;30.80;27.40;;;;;;;11.38;90.72;98469.49;225583;1278;22546;-71
2023/05/17 01:00:07;;;;;;;30.60;27.00;;;;;;;11.36;90.55;98472.14;225492;1279;24258;-72
2023/05/17 01:05:14;;;;;;;34.40;29.90;;;;;;;11.36;90.89;98469.66;225506;1269;22568;-72
2023/05/17 01:10:20;;;;;;;34.50;29.00;;;;;;;11.36;90.87;98464.21;225482;1279;22527;-73
2023/05/17 01:15:26;;;;;;;28.30;25.30;;;;;;;11.35;90.80;98466.48;225485;1272;22565;-73
2023/05/17 01:20:37;;;;;;;26.40;23.60;;;;;;;11.33;90.99;98466.39;225551;1282;22549;-71
2023/05/17 01:26:12;;;;;;;26.40;23.40;;;;;;;11.31;90.93;98475.62;225518;1282;22571;-71
2023/05/17 01:31:16;;;;;;;24.80;21.20;;;;;;;11.29;91.12;98477.48;225493;1275;22548;-72
2023/05/17 01:36:25;;;;;;;26.30;23.40;;;;;;;11.28;91.01;98461.16;225525;1282;22550;-73
2023/05/17 01:41:42;;;;;;;24.20;20.60;;;;;;;11.26;91.01;98449.35;225520;1280;22578;-74
2023/05/17 01:47:15;;;;;;;24.40;20.40;;;;;;;11.21;91.01;98455.59;225449;1266;22565;-72
2023/05/17 01:52:34;;;;;;;22.10;19.20;;;;;;;11.19;91.13;98464.32;225507;1282;22555;-74
2023/05/17 01:57:43;;;;;;;22.60;19.80;;;;;;;11.18;91.31;98471.85;225379;1281;22594;-72
2023/05/17 02:02:48;;;;;;;16.80;15.00;;;;;;;11.17;91.14;98473.79;225442;1281;22557;-73
2023/05/17 02:07:53;;;;;;;17.10;14.10;;;;;;;11.12;91.13;98492.38;225507;1282;22559;-73
2023/05/17 02:13:01;;;;;;;15.80;13.10;;;;;;;11.06;91.09;98502.72;225445;1279;22537;-73
2023/05/17 02:18:03;;;;;;;15.00;11.90;;;;;;;10.98;91.32;98504.65;225502;1279;22555;-73
2023/05/17 02:23:05;;;;;;;14.30;12.50;;;;;;;10.91;91.25;98494.77;225582;1282;22556;-74
2023/05/17 02:28:09;;;;;;;14.00;12.50;;;;;;;10.85;91.76;98497.71;225414;1281;22549;-73
2023/05/17 02:33:16;;;;;;;15.50;12.60;;;;;;;10.80;91.34;98498.55;225410;1282;22559;-73
2023/05/17 02:38:27;;;;;;;17.90;13.50;;;;;;;10.77;91.60;98495.92;225529;1271;22542;-73
2023/05/17 02:43:32;;;;;;;17.40;14.70;;;;;;;10.74;91.68;98493.48;225536;1278;22548;-73
2023/05/17 02:48:35;;;;;;;13.80;11.70;;;;;;;10.71;91.86;98496.99;225558;1282;22566;-72
2023/05/17 02:53:40;;;;;;;12.20;10.40;;;;;;;10.68;91.54;98504.80;225512;1281;25462;-72
2023/05/17 02:58:47;;;;;;;11.10;10.00;;;;;;;10.63;91.86;98503.34;225537;1278;22580;-73
2023/05/17 03:03:55;;;;;;;13.30;11.70;;;;;;;10.55;91.71;98507.88;225377;1282;22535;-73
2023/05/17 03:09:01;;;;;;;14.60;12.70;;;;;;;10.49;91.43;98514.68;225393;1281;25271;-74
2023/05/17 03:14:10;;;;;;;14.10;11.30;;;;;;;10.41;91.65;98518.24;225526;1279;22543;-74
2023/05/17 03:19:13;;;;;;;16.60;13.50;;;;;;;10.34;91.72;98525.02;225453;1278;22536;-74
2023/05/17 03:24:20;;;;;;;18.80;13.90;;;;;;;10.29;91.74;98527.54;225449;1281;22557;-74
2023/05/17 03:29:24;;;;;;;18.40;14.30;;;;;;;10.22;91.63;98528.03;225514;1281;22547;-74
2023/05/17 03:34:26;;;;;;;17.50;13.10;;;;;;;10.15;91.80;98540.92;225513;1278;22526;-75
2023/05/17 03:39:30;;;;;;;18.80;14.50;;;;;;;10.09;91.54;98552.62;225585;1263;22548;-72
2023/05/17 03:44:33;;;;;;;18.80;14.60;;;;;;;10.01;91.66;98553.69;225375;1281;22550;-73
2023/05/17 03:49:40;;;;;;;17.60;13.80;;;;;;;9.95;91.67;98558.17;225512;1281;22540;-75
2023/05/17 03:54:51;;;;;;;19.50;15.20;;;;;;;9.89;91.91;98563.30;225466;1280;24256;-73
2023/05/17 03:59:54;;;;;;;21.60;16.40;;;;;;;9.85;91.78;98569.21;225467;1282;22559;-75
2023/05/17 04:04:56;;;;;;;24.20;18.10;;;;;;;9.81;91.91;98574.64;225585;1280;24722;-73
2023/05/17 04:10:01;;;;;;;23.80;18.10;;;;;;;9.79;91.92;98575.61;225528;1282;22564;-74
2023/05/17 04:15:18;;;;;;;24.70;19.40;;;;;;;9.74;92.43;98575.52;225626;1282;22559;-73
2023/05/17 04:20:23;;;;;;;23.70;19.30;;;;;;;9.72;92.13;98586.20;225537;1282;22611;-73
2023/05/17 04:25:26;;;;;;;25.30;19.10;;;;;;;9.68;91.99;98598.66;225567;1281;22551;-72
2023/05/17 04:30:29;;;;;;;24.60;19.20;;;;;;;9.64;91.85;98599.89;225449;1282;22535;-73
2023/05/17 04:35:37;;;;;;;24.00;18.10;;;;;;;9.57;92.18;98599.77;225485;1282;22551;-73
2023/05/17 04:40:41;;;;;;;22.70;17.60;;;;;;;9.51;92.17;98608.21;225554;1278;22531;-74
2023/05/17 04:45:46;;;;;;;21.80;17.00;;;;;;;9.45;92.13;98618.81;225414;1281;23035;-73
2023/05/17 04:50:49;;;;;;;24.60;19.20;;;;;;;9.40;91.94;98622.56;225341;1282;22543;-75
2023/05/17 04:55:52;;;;;;;25.30;18.50;;;;;;;9.36;92.20;98623.60;225411;1280;22540;-73
2023/05/17 05:00:55;;;;;;;23.70;17.60;;;;;;;9.34;92.26;98625.86;225616;1279;22578;-74
2023/05/17 05:05:58;;;;;;;25.00;19.90;;;;;;;9.32;92.43;98637.35;225556;1278;22550;-74
2023/05/17 05:11:01;;;;;;;22.50;17.90;;;;;;;9.28;92.44;98638.64;225396;1282;22551;-73
2023/05/17 05:16:05;;;;;;;22.80;17.10;;;;;;;9.25;92.14;98645.09;225511;1281;22547;-74
2023/05/17 05:21:10;;;;;;;25.00;18.10;;;;;;;9.24;92.42;98649.20;225584;1282;22611;-73
2023/05/17 05:26:12;;;;;;;23.50;17.90;;;;;;;9.23;92.53;98658.27;225547;1281;22582;-73
2023/05/17 05:31:16;;;;;;;25.00;19.20;;;;;;;9.22;92.50;98658.94;225441;1282;22558;-73
2023/05/17 05:36:27;;;;;;;26.90;19.50;;;;;;;9.21;92.56;98663.36;225592;1278;22544;-73
2023/05/17 05:41:30;;;;;;;25.60;19.40;;;;;;;9.20;92.25;98673.29;225459;1282;22540;-74
2023/05/17 05:46:40;;;;;;;25.10;20.40;;;;;;;9.17;92.45;98686.84;225358;1263;22550;-73
2023/05/17 05:52:03;;;;;;;23.20;18.60;;;;;;;9.11;92.26;98688.58;225378;1259;22540;-74
2023/05/17 05:57:08;;;;;;;24.30;19.40;;;;;;;9.06;92.30;98687.84;225276;1259;22561;-74
2023/05/17 06:02:10;;;;;;;23.10;17.60;;;;;;;9.00;92.04;98697.86;224972;1269;137985;-74
2023/05/17 06:07:13;;;;;;;21.10;17.10;;;;;;;8.96;91.98;98700.25;225027;1266;138403;-76
2023/05/17 06:12:22;;;;;;;20.80;16.60;;;;;;;8.92;91.96;98701.64;225112;1264;138651;-75
2023/05/17 06:17:24;;;;;;;22.60;17.20;;;;;;;8.89;91.81;98716.02;224913;1271;138422;-74
2023/05/17 06:22:26;;;;;;;23.60;18.30;;;;;;;8.87;91.92;98725.23;224905;1268;138344;-74
2023/05/17 06:27:32;;;;;;;22.30;17.80;;;;;;;8.86;91.96;98737.32;225210;1272;22543;-74
2023/05/17 06:32:34;;;;;;;24.10;19.20;;;;;;;8.85;92.02;98749.48;225120;1278;138103;-73
2023/05/17 06:37:37;;;;;;;25.10;19.30;;;;;;;8.85;92.10;98751.64;225144;1275;138304;-74
2023/05/17 06:42:39;;;;;;;27.30;21.70;;;;;;;8.83;92.22;98760.58;224925;1267;138926;-74
2023/05/17 06:47:42;;;;;;;30.60;21.90;;;;;;;8.84;92.15;98770.88;225080;1275;138442;-75
2023/05/17 06:52:48;;;;;;;26.80;21.50;;;;;;;8.86;92.10;98772.42;225079;1275;138435;-75
2023/05/17 06:57:52;;;;;;;30.90;23.40;;;;;;;8.88;92.36;98781.50;225020;1272;138425;-74
2023/05/17 07:02:54;;;;;;;28.20;22.10;;;;;;;8.90;92.42;98782.83;225130;1269;22544;-73
2023/05/17 07:07:59;;;;;;;30.60;23.30;;;;;;;8.94;92.06;98776.39;224834;1264;138348;-75
2023/05/17 07:13:02;;;;;;;30.40;22.80;;;;;;;8.98;92.40;98778.94;225035;1271;138402;-75
2023/05/17 07:18:04;;;;;;;29.30;23.10;;;;;;;9.03;92.40;98781.50;224998;1266;138737;-74
2023/05/17 07:23:06;;;;;;;26.90;22.00;;;;;;;9.09;92.40;98799.55;225057;1261;140054;-72
2023/05/17 07:28:08;;;;;;;24.60;19.40;;;;;;;9.13;92.44;98810.14;224674;1265;138707;-72
2023/05/17 07:33:12;;;;;;;23.80;17.80;;;;;;;9.16;92.38;98814.80;224674;1262;138039;-73
2023/05/17 07:38:26;;;;;;;26.40;20.10;;;;;;;9.17;92.39;98814.78;224757;1275;138401;-73
2023/05/17 07:43:29;;;;;;;36.80;19.40;;;;;;;9.15;92.12;98815.33;224927;1262;138510;-74
2023/05/17 07:48:36;;;;;;;31.20;19.40;;;;;;;9.15;92.05;98825.02;224731;1277;138485;-72
2023/05/17 07:53:38;;;;;;;23.90;18.30;;;;;;;9.13;92.44;98828.75;224772;1277;138443;-73
2023/05/17 07:58:40;;;;;;;28.60;17.90;;;;;;;9.10;92.13;98834.97;224919;1276;138665;-72
2023/05/17 08:03:46;;;;;;;25.40;18.90;;;;;;;9.07;92.03;98843.21;225023;1274;22536;-72
2023/05/17 08:08:49;;;;;;;25.00;18.30;;;;;;;9.08;92.29;98855.89;224908;1281;138360;-72
2023/05/17 08:13:55;;;;;;;26.20;19.30;;;;;;;9.14;92.63;98855.36;224912;1283;138395;-73
2023/05/17 08:19:00;;;;;;;19.80;16.20;;;;;;;9.19;92.22;98859.05;224771;1280;138484;-72
2023/05/17 08:24:05;;;;;;;21.30;17.30;;;;;;;9.20;92.02;98865.23;225144;1275;138557;-72
2023/05/17 08:29:08;;;;;;;20.70;16.90;;;;;;;9.21;92.44;98871.43;225156;1270;138419;-72
2023/05/17 08:34:14;;;;;;;24.80;18.50;;;;;;;9.23;92.43;98872.69;225042;1280;22733;-73
2023/05/17 08:39:22;;;;;;;25.10;19.00;;;;;;;9.28;92.58;98877.66;225337;1282;22550;-73
2023/05/17 08:44:27;;;;;;;21.00;17.60;;;;;;;9.31;92.69;98874.70;225293;1278;138056;-73
2023/05/17 08:49:33;;;;;;;23.50;17.50;;;;;;;9.33;92.69;98875.48;225246;1260;138519;-72
2023/05/17 08:54:36;;;;;;;22.40;17.60;;;;;;;9.41;92.66;98877.23;225051;1279;138552;-72
2023/05/17 08:59:44;;;;;;;19.60;17.30;;;;;;;9.49;92.82;98877.11;225205;1270;138506;-76
2023/05/17 09:04:54;;;;;;;17.90;15.80;;;;;;;9.51;92.59;98875.88;225217;1279;138443;-72
2023/05/17 09:09:57;;;;;;;17.90;16.00;;;;;;;9.56;92.69;98879.09;225227;1276;22543;-72
2023/05/17 09:15:13;;;;;;;18.20;16.30;;;;;;;9.61;92.86;98878.36;225124;1281;138315;-71
2023/05/17 09:20:32;;;;;;;17.10;14.90;;;;;;;9.62;92.31;98887.66;225188;1280;151330;-72
2023/05/17 09:25:45;;;;;;;19.70;12.50;;;;;;;9.57;91.93;98896.95;225001;1267;138327;-70
2023/05/17 09:30:48;;;;;;;17.90;13.70;;;;;;;9.48;91.67;98904.88;224939;1264;138504;-72
2023/05/17 09:35:51;;;;;;;18.60;14.60;;;;;;;9.44;91.91;98906.20;225010;1277;138560;-74
2023/05/17 09:40:55;;;;;;;20.60;16.10;;;;;;;9.43;91.86;98912.83;225198;1273;138434;-72
2023/05/17 09:45:58;;;;;;;21.30;17.10;;;;;;;9.43;91.83;98912.60;225036;1281;22543;-69
2023/05/17 09:51:00;;;;;;;22.60;17.70;;;;;;;9.42;91.83;98918.77;225014;1267;138828;-71
2023/05/17 09:56:04;;;;;;;18.90;16.90;;;;;;;9.43;91.71;98919.86;225042;1270;138322;-71
2023/05/17 10:01:08;;;;;;;18.70;16.20;;;;;;;9.41;91.84;98926.23;224898;1276;138448;-70
2023/05/17 10:06:14;;;;;;;15.70;14.00;;;;;;;9.39;91.73;98931.05;225047;1277;138435;-72
2023/05/17 10:11:36;;;;;;;15.50;13.00;;;;;;;9.36;91.45;98934.94;225001;1273;138455;-71
2023/05/17 10:16:38;;;;;;;14.80;12.70;;;;;;;9.34;91.41;98938.56;224924;1268;139984;-72
2023/05/17 10:21:43;;;;;;;14.40;12.10;;;;;;;9.33;91.47;98943.25;225118;1276;22568;-70
2023/05/17 10:26:45;;;;;;;15.40;12.70;;;;;;;9.33;91.59;98946.70;224951;1282;138399;-72
2023/05/17 10:31:51;;;;;;;15.60;11.90;;;;;;;9.33;91.17;98949.30;224965;1270;138237;-70
2023/05/17 10:36:54;;;;;;;12.80;10.80;;;;;;;9.35;91.77;98956.10;224982;1264;146067;-71
2023/05/17 10:42:02;;;;;;;12.20;10.40;;;;;;;9.37;91.18;98959.81;225001;1266;139133;-71
2023/05/17 10:47:16;;;;;;;14.70;10.40;;;;;;;9.34;91.19;98975.00;225070;1270;138606;-72
2023/05/17 10:52:22;;;;;;;13.70;8.60;;;;;;;9.29;91.15;98983.98;224952;1270;138494;-73
2023/05/17 10:57:35;;;;;;;14.30;8.90;;;;;;;9.20;91.11;98984.23;225053;1276;22553;-70
2023/05/17 11:03:15;;;;;;;13.80;9.20;;;;;;;9.15;91.14;98987.25;224997;1261;138047;-75
2023/05/17 11:08:23;;;;;;;14.70;9.70;;;;;;;9.12;91.49;98992.37;224798;1282;138407;-73
2023/05/17 11:13:28;;;;;;;16.80;11.00;;;;;;;9.08;91.59;98995.88;224962;1276;138422;-75
2023/05/17 11:18:51;;;;;;;16.60;10.70;;;;;;;9.08;91.92;98999.60;224842;1276;138415;-72
2023/05/17 11:23:57;;;;;;;13.20;9.70;;;;;;;9.09;91.47;99002.01;225227;1275;138465;-72
2023/05/17 11:29:13;;;;;;;14.80;10.00;;;;;;;9.06;91.36;98996.88;225026;1261;138265;-72
2023/05/17 11:34:23;;;;;;;14.20;10.00;;;;;;;9.05;91.54;98999.34;225163;1276;138514;-70
2023/05/17 11:39:26;;;;;;;15.40;10.30;;;;;;;9.06;91.80;99003.20;225317;1280;22991;-70
2023/05/17 11:44:31;;;;;;;12.80;9.50;;;;;;;9.08;91.63;99005.23;225244;1279;138326;-73
2023/05/17 11:49:36;;;;;;;13.30;9.50;;;;;;;9.10;91.32;99015.21;225039;1277;138273;-70
2023/05/17 11:54:41;;;;;;;12.00;9.10;;;;;;;9.07;91.13;99018.15;225221;1279;138275;-73
2023/05/17 11:59:45;;;;;;;13.40;9.40;;;;;;;9.04;91.23;99025.64;225114;1267;138254;-71
2023/05/17 12:04:47;;;;;;;15.80;9.90;;;;;;;9.02;91.33;99036.30;225141;1275;138098;-72
2023/05/17 12:09:55;;;;;;;12.50;7.80;;;;;;;9.03;91.66;99044.35;225287;1276;22547;-72
2023/05/17 12:15:00;;;;;;;13.10;7.90;;;;;;;8.99;91.10;99052.56;225227;1280;137924;-72
2023/05/17 12:20:09;;;;;;;11.30;8.80;;;;;;;8.92;90.66;99056.56;225255;1277;138128;-71
2023/05/17 12:25:24;;;;;;;13.40;9.80;;;;;;;8.88;91.10;99057.49;225014;1267;138161;-72
2023/05/17 12:30:26;;;;;;;16.70;10.10;;;;;;;8.88;90.89;99059.77;225101;1275;138962;-72
2023/05/17 12:35:30;;;;;;;13.40;9.40;;;;;;;8.91;91.39;99063.71;225088;1274;138275;-72
2023/05/17 12:40:39;;;;;;;16.30;10.90;;;;;;;8.95;91.31;99072.42;225127;1282;138091;-71
2023/05/17 12:45:46;;;;;;;14.50;10.50;;;;;;;8.97;90.88;99076.09;225064;1263;22550;-73
2023/05/17 12:50:54;;;;;;;15.40;11.30;;;;;;;8.97;91.61;99078.39;224957;1269;138013;-73
2023/05/17 12:55:59;;;;;;;14.70;10.80;;;;;;;8.97;91.09;99079.09;225102;1275;138360;-74
2023/05/17 13:01:09;;;;;;;19.00;12.50;;;;;;;8.99;91.34;99081.98;225281;1282;138250;-72
2023/05/17 13:06:12;;;;;;;14.90;11.80;;;;;;;9.02;91.00;99083.75;225262;1279;138297;-72
2023/05/17 13:11:17;;;;;;;16.10;12.80;;;;;;;9.04;91.21;99089.66;225044;1277;138453;-72
2023/05/17 13:16:28;;;;;;;16.20;11.40;;;;;;;9.08;91.59;99091.23;225181;1276;138657;-72
2023/05/17 13:21:33;;;;;;;19.40;11.20;;;;;;;9.07;91.52;99092.88;225319;1264;22544;-72
2023/05/17 13:26:36;;;;;;;17.40;12.00;;;;;;;9.05;91.03;99087.84;225082;1276;138563;-76
2023/05/17 13:31:41;;;;;;;14.90;11.20;;;;;;;9.03;91.05;99087.90;225110;1275;138278;-75
2023/05/17 13:36:46;;;;;;;19.20;13.70;;;;;;;9.01;91.09;99092.12;224939;1277;138482;-72
2023/05/17 13:41:49;;;;;;;18.40;12.80;;;;;;;9.00;91.76;99100.05;224965;1277;138486;-74
2023/05/17 13:46:54;;;;;;;22.60;13.70;;;;;;;8.98;91.46;99104.84;224803;1260;138436;-72
2023/05/17 13:51:56;;;;;;;21.00;13.80;;;;;;;8.96;91.71;99108.00;224856;1264;22571;-72
2023/05/17 13:56:58;;;;;;;21.10;13.30;;;;;;;8.96;91.62;99106.66;224971;1278;138163;-71
2023/05/17 14:02:01;;;;;;;21.40;13.90;;;;;;;8.95;91.35;99113.54;224764;1275;138337;-71
2023/05/17 14:07:06;;;;;;;20.60;14.20;;;;;;;8.94;91.61;99115.45;225038;1279;23020;-72
2023/05/17 14:12:08;;;;;;;20.00;12.70;;;;;;;8.95;91.69;99114.40;224949;1275;22598;-71
2023/05/17 14:17:11;;;;;;;21.30;14.90;;;;;;;8.95;91.71;99117.03;225134;1278;22538;-70
2023/05/17 14:22:13;;;;;;;25.10;15.70;;;;;;;8.97;92.00;99120.32;225218;1278;22546;-70
2023/05/17 14:27:16;;;;;;;21.70;15.10;;;;;;;9.01;91.82;99131.72;225581;1282;22578;-70
2023/05/17 14:32:18;;;;;;;27.30;17.20;;;;;;;9.04;91.79;99137.17;225576;1279;22541;-71
2023/05/17 14:37:20;;;;;;;24.80;16.20;;;;;;;9.11;91.98;99143.94;225599;1278;24512;-70
2023/05/17 14:42:23;;;;;;;27.50;16.50;;;;;;;9.16;92.36;99147.00;225591;1259;22551;-72
2023/05/17 14:47:25;;;;;;;27.10;16.40;;;;;;;9.23;92.10;99145.96;225491;1280;24518;-71
2023/05/17 14:52:28;;;;;;;25.90;16.70;;;;;;;9.26;91.88;99152.98;225539;1282;22545;-70
2023/05/17 14:57:30;;;;;;;24.00;16.30;;;;;;;9.29;92.00;99156.73;225597;1275;23019;-71
2023/05/17 15:02:32;;;;;;;26.10;16.50;;;;;;;9.28;92.01;99159.20;225385;1280;25400;-72
2023/05/17 15:07:34;;;;;;;26.40;17.80;;;;;;;9.27;91.72;99163.35;225544;1280;22570;-73
2023/05/17 15:12:37;;;;;;;25.70;18.40;;;;;;;9.27;92.04;99155.13;225590;1279;22556;-69
2023/05/17 15:17:40;;;;;;;26.90;19.00;;;;;;;9.28;91.96;99157.26;225555;1280;22539;-69
2023/05/17 15:22:43;;;;;;;29.80;18.10;;;;;;;9.33;92.23;99171.55;225499;1277;22531;-70
2023/05/17 15:27:47;;;;;;;26.60;18.10;;;;;;;9.36;92.10;99170.88;225626;1278;22700;-69
2023/05/17 15:32:50;;;;;;;29.90;19.50;;;;;;;9.40;92.16;99173.92;225611;1278;22565;-70
2023/05/17 15:37:56;;;;;;;30.30;19.70;;;;;;;9.46;92.25;99179.67;225621;1282;22546;-71
2023/05/17 15:42:58;;;;;;;35.20;19.70;;;;;;;9.49;92.47;99170.20;225610;1279;22632;-70
2023/05/17 15:48:00;;;;;;;26.40;19.00;;;;;;;9.52;92.33;99169.55;225558;1277;22549;-71
2023/05/17 15:53:04;;;;;;;32.50;20.90;;;;;;;9.53;92.18;99167.99;225468;1282;22560;-70
2023/05/17 15:58:08;;;;;;;34.50;21.70;;;;;;;9.56;92.33;99172.96;225482;1280;22550;-70
2023/05/17 16:03:11;;;;;;;33.00;22.80;;;;;;;9.58;92.44;99181.34;225512;1278;22574;-70
2023/05/17 16:08:13;;;;;;;35.10;22.80;;;;;;;9.63;92.46;99182.95;225512;1279;22561;-70
2023/05/17 16:13:15;;;;;;;35.00;22.50;;;;;;;9.67;92.49;99188.08;225594;1276;22626;-70
2023/05/17 16:18:18;;;;;;;34.10;22.40;;;;;;;9.69;92.46;99191.56;225630;1278;22545;-70
2023/05/17 16:23:21;;;;;;;34.60;23.20;;;;;;;9.67;92.11;99190.62;225513;1279;22547;-69
2023/05/17 16:28:24;;;;;;;41.10;22.50;;;;;;;9.66;92.33;99190.36;225501;1279;22578;-70
2023/05/17 16:33:26;;;;;;;33.50;21.30;;;;;;;9.69;92.35;99189.33;225451;1282;25278;-69
2023/05/17 16:38:28;;;;;;;39.80;20.80;;;;;;;9.71;92.13;99197.30;225464;1278;25298;-69
2023/05/17 16:43:30;;;;;;;32.80;20.90;;;;;;;9.72;92.18;99198.61;225589;1279;22578;-70
2023/05/17 16:48:32;;;;;;;32.70;19.70;;;;;;;9.73;92.14;99200.14;225539;1280;22548;-71
2023/05/17 16:53:35;;;;;;;31.30;20.80;;;;;;;9.74;92.14;99207.39;225606;1282;22575;-69
2023/05/17 16:58:37;;;;;;;31.30;19.30;;;;;;;9.74;92.11;99207.95;225554;1278;22578;-70
2023/05/17 17:03:40;;;;;;;27.50;18.30;;;;;;;9.72;92.18;99211.65;225550;1278;22568;-71
2023/05/17 17:08:42;;;;;;;33.70;20.10;;;;;;;9.71;92.23;99217.35;225413;1278;22565;-70
2023/05/17 17:13:44;;;;;;;32.00;20.70;;;;;;;9.71;92.37;99214.71;225555;1282;22539;-70
2023/05/17 17:18:48;;;;;;;37.00;21.00;;;;;;;9.71;92.29;99221.98;225580;1275;25242;-73
2023/05/17 17:23:51;;;;;;;31.60;21.60;;;;;;;9.72;92.35;99233.12;225598;1279;22542;-70
2023/05/17 17:28:53;;;;;;;29.00;20.10;;;;;;;9.72;92.31;99248.39;225609;1275;22539;-71
2023/05/17 17:33:55;;;;;;;28.20;19.20;;;;;;;9.71;92.45;99259.92;225512;1282;22545;-71
2023/05/17 17:38:57;;;;;;;31.40;20.80;;;;;;;9.68;92.03;99261.29;225437;1273;22550;-71
2023/05/17 17:43:59;;;;;;;32.60;20.00;;;;;;;9.67;92.13;99268.19;225431;1281;22570;-71
2023/05/17 17:49:02;;;;;;;32.60;20.80;;;;;;;9.66;92.21;99278.80;225585;1278;22542;-71
2023/05/17 17:54:06;;;;;;;27.90;19.60;;;;;;;9.64;92.10;99275.13;225549;1282;22551;-70
2023/05/17 17:59:08;;;;;;;58.90;41.40;;;;;;;9.62;92.37;99269.08;225541;1282;22578;-72
2023/05/17 18:04:10;;;;;;;36.10;22.10;;;;;;;9.59;92.12;99265.35;225404;1281;22540;-72
2023/05/17 18:09:12;;;;;;;30.40;19.70;;;;;;;9.56;92.02;99259.52;225423;1277;23639;-69
2023/05/17 18:14:14;;;;;;;32.30;19.00;;;;;;;9.52;92.26;99259.23;225564;1278;22536;-70
2023/05/17 18:19:16;;;;;;;30.40;20.00;;;;;;;9.45;92.17;99265.59;225496;1282;22560;-71
2023/05/17 18:24:18;;;;;;;30.50;20.60;;;;;;;9.40;91.78;99271.83;225512;1279;24331;-71
2023/05/17 18:29:21;;;;;;;25.50;17.90;;;;;;;9.37;92.12;99272.52;225539;1280;22551;-70
2023/05/17 18:34:24;;;;;;;29.70;20.10;;;;;;;9.34;92.12;99278.19;225438;1282;22574;-71
2023/05/17 18:39:30;;;;;;;28.50;19.20;;;;;;;9.30;91.99;99282.77;225447;1278;22621;-71
2023/05/17 18:44:34;;;;;;;28.00;19.40;;;;;;;9.26;91.98;99292.02;225513;1282;22553;-71
2023/05/17 18:49:37;;;;;;;34.90;20.40;;;;;;;9.23;91.94;99300.75;225472;1280;22561;-72
2023/05/17 18:54:42;;;;;;;26.70;18.70;;;;;;;9.20;91.63;99305.88;225575;1278;22540;-71
2023/05/17 18:59:44;;;;;;;28.60;19.80;;;;;;;9.16;91.71;99314.15;225534;1278;22548;-71
2023/05/17 19:04:47;;;;;;;30.20;19.20;;;;;;;9.14;91.84;99319.63;225578;1280;22547;-71
2023/05/17 19:09:49;;;;;;;28.50;19.90;;;;;;;9.12;91.56;99317.11;225489;1281;22630;-70
2023/05/17 19:14:52;;;;;;;27.60;19.40;;;;;;;9.09;91.75;99318.66;225452;1281;22569;-71
2023/05/17 19:19:54;;;;;;;24.10;17.80;;;;;;;9.06;91.52;99312.96;225422;1282;22561;-71
2023/05/17 19:24:56;;;;;;;27.50;19.10;;;;;;;9.03;91.44;99314.39;225574;1278;22544;-72
2023/05/17 19:29:58;;;;;;;23.10;18.30;;;;;;;9.01;91.72;99318.66;225542;1281;23043;-70
2023/05/17 19:35:01;;;;;;;31.90;22.40;;;;;;;8.99;91.51;99324.99;225493;1280;22542;-72
2023/05/17 19:40:06;;;;;;;29.20;19.40;;;;;;;8.96;91.41;99333.55;225545;1275;22553;-71
2023/05/17 19:45:10;;;;;;;31.20;20.70;;;;;;;8.93;91.54;99334.60;225399;1282;22546;-73
2023/05/17 19:50:14;;;;;;;33.30;21.40;;;;;;;8.91;91.22;99342.24;225422;1278;25407;-70
2023/05/17 19:55:20;;;;;;;31.20;21.60;;;;;;;8.89;91.62;99352.23;225463;1281;22566;-72
2023/05/17 20:00:23;;;;;;;33.30;21.40;;;;;;;8.88;91.66;99356.45;225531;1279;22547;-71
2023/05/17 20:05:26;;;;;;;32.90;21.00;;;;;;;8.84;91.40;99359.40;225507;1281;22548;-70
2023/05/17 20:10:32;;;;;;;27.70;19.20;;;;;;;8.82;91.20;99361.73;225608;1275;22526;-70
2023/05/17 20:15:34;;;;;;;33.20;20.20;;;;;;;8.80;91.40;99367.63;225440;1278;22539;-71
2023/05/17 20:20:44;;;;;;;31.60;21.20;;;;;;;8.77;91.27;99372.61;225419;1282;22546;-72
2023/05/17 20:25:48;;;;;;;31.50;20.20;;;;;;;8.76;91.45;99380.10;225536;1278;22564;-71
2023/05/17 20:30:50;;;;;;;28.70;21.10;;;;;;;8.76;91.36;99379.83;225481;1277;22546;-72
2023/05/17 20:35:58;;;;;;;29.40;19.80;;;;;;;8.72;91.22;99376.85;225505;1278;22550;-71
2023/05/17 20:41:02;;;;;;;31.40;20.90;;;;;;;8.70;91.47;99375.34;225412;1281;22562;-71
2023/05/17 20:46:08;;;;;;;35.30;21.40;;;;;;;8.69;91.17;99377.52;225570;1282;22703;-71
2023/05/17 20:51:11;;;;;;;33.60;21.20;;;;;;;8.68;91.14;99381.03;225396;1281;22566;-70
2023/05/17 20:56:16;;;;;;;33.40;20.60;;;;;;;8.66;91.37;99386.63;225551;1281;22539;-70
2023/05/17 21:01:18;;;;;;;32.10;22.70;;;;;;;8.66;91.37;99396.70;225508;1280;22567;-70
2023/05/17 21:06:27;;;;;;;32.80;22.60;;;;;;;8.65;91.38;99404.30;225355;1282;22551;-72
2023/05/17 21:11:37;;;;;;;34.20;22.00;;;;;;;8.66;91.26;99401.44;225564;1280;22583;-70
2023/05/17 21:16:39;;;;;;;33.70;21.60;;;;;;;8.65;91.14;99397.63;225546;1278;22576;-72
2023/05/17 21:21:49;;;;;;;40.10;22.00;;;;;;;8.62;91.16;99399.15;225585;1282;22559;-70
2023/05/17 21:26:52;;;;;;;28.80;21.10;;;;;;;8.60;90.91;99401.33;225485;1281;22548;-71
2023/05/17 21:31:55;;;;;;;33.70;21.20;;;;;;;8.58;91.31;99399.26;225528;1282;22585;-72
2023/05/17 21:36:58;;;;;;;30.70;21.20;;;;;;;8.57;91.04;99400.30;225570;1279;24274;-72
2023/05/17 21:42:02;;;;;;;31.60;22.30;;;;;;;8.54;91.11;99405.30;225542;1282;22558;-71
2023/05/17 21:47:09;;;;;;;37.10;22.10;;;;;;;8.52;90.94;99400.73;225613;1282;22543;-70
2023/05/17 21:52:15;;;;;;;31.90;21.20;;;;;;;8.52;91.18;99398.70;225480;1281;23012;-70
2023/05/17 21:57:19;;;;;;;32.00;20.10;;;;;;;8.51;90.70;99396.52;225605;1282;22542;-70
2023/05/17 22:02:24;;;;;;;28.30;21.10;;;;;;;8.48;90.66;99391.50;225588;1259;24314;-72
2023/05/17 22:07:27;;;;;;;31.40;21.20;;;;;;;8.46;91.40;99393.27;225526;1281;22569;-70
2023/05/17 22:12:33;;;;;;;29.30;20.80;;;;;;;8.45;90.96;99401.28;225597;1282;22532;-70
2023/05/17 22:17:36;;;;;;;32.00;21.00;;;;;;;8.43;90.89;99404.64;225535;1271;22550;-70
2023/05/17 22:22:52;;;;;;;29.90;21.90;;;;;;;8.42;90.84;99410.36;225583;1278;24231;-72
2023/05/17 22:27:54;;;;;;;33.30;23.00;;;;;;;8.41;91.01;99414.03;225594;1275;22539;-70
2023/05/17 22:32:56;;;;;;;35.60;23.00;;;;;;;8.40;91.33;99414.66;225541;1280;22553;-70
2023/05/17 22:37:59;;;;;;;32.90;22.80;;;;;;;8.40;91.18;99413.27;225373;1282;195705;-71
2023/05/17 22:43:01;;;;;;;37.00;25.50;;;;;;;8.39;90.88;99412.11;225554;1279;22590;-72
2023/05/17 22:48:06;;;;;;;40.40;27.90;;;;;;;8.39;90.64;99415.97;225558;1280;22937;-71
2023/05/17 22:53:12;;;;;;;37.90;27.30;;;;;;;8.40;91.17;99413.08;225547;1282;22548;-72
2023/05/17 22:58:15;;;;;;;41.00;27.40;;;;;;;8.39;91.05;99409.09;225541;1281;22544;-71
2023/05/17 23:03:19;;;;;;;37.40;25.50;;;;;;;8.38;90.84;99407.31;225422;1281;22526;-71
2023/05/17 23:08:23;;;;;;;36.60;25.00;;;;;;;8.36;90.79;99405.95;225426;1278;22527;-71
2023/05/17 23:13:29;;;;;;;33.60;22.70;;;;;;;8.35;90.70;99408.02;225599;1282;22557;-71
2023/05/17 23:18:32;;;;;;;30.90;21.20;;;;;;;8.33;90.70;99409.38;225481;1280;22568;-72